Latest Weather Observations for Dunalley

IDT60901

Issued at 3:21 pm EST Tuesday 28 April 2015 (issued every 10 minutes, with the page automatically refreshed every 10 minutes)

About weather observations | Map of Hobart area stations | Latest observations for Hobart area | Other Formats
Station Details ID: 094254 Name: DUNALLEY (STROUD POINT) Lat: -42.90 Lon: 147.79 Height: 12.43 m
Data from the previous 72 hours. | See also: Recent months at Dunalley
Date/Time
EST
Tmp

°C
App
Tmp
°C
Dew
Point
°C
Rel
Hum
%
Delta-T

°C
Wind Press
QNH
hPa
Press
MSL
hPa
Rain
since
9 am
mm
Dir
 
Spd
km/h
Gust
km/h
Spd
kts
Gust
kts
28/03:00pm 15.3 12.0 11.5 78 2.0 SW 20 26 11 14 1025.4 1025.4 0.0
28/02:30pm 15.4 12.0 11.2 76 2.2 SW 20 24 11 13 1025.4 1025.4 0.0
28/02:00pm 15.2 11.7 11.0 76 2.2 SW 20 24 11 13 1025.4 1025.4 0.0
28/01:30pm 14.9 11.0 10.7 76 2.2 SW 22 28 12 15 1025.6 1025.6 0.0
28/01:00pm 14.3 10.3 10.5 78 2.0 SW 22 26 12 14 1025.7 1025.7 0.0
28/12:30pm 14.4 10.9 10.8 79 1.9 WSW 20 24 11 13 1025.9 1025.9 0.0
28/12:00pm 14.0 10.1 10.8 81 1.7 W 22 28 12 15 1026.1 1026.1 0.0
28/11:30am 13.7 8.4 9.7 77 2.1 W 28 33 15 18 1026.3 1026.3 0.0
28/11:00am 13.1 7.5 10.1 82 1.5 W 30 35 16 19 1026.2 1026.2 0.0
28/10:30am 13.0 7.1 10.5 85 1.3 W 32 37 17 20 1026.2 1026.2 0.0
28/10:00am 12.8 7.2 10.3 85 1.3 W 30 33 16 18 1026.2 1026.2 0.0
28/09:30am 12.4 7.3 10.5 88 1.0 W 28 32 15 17 1026.1 1026.1 0.0
28/09:00am 11.6 6.3 10.0 90 0.8 W 28 35 15 19 1026.0 1026.0 0.0
28/08:30am 11.0 5.8 10.1 94 0.5 WSW 28 39 15 21 1026.0 1026.0 0.0
28/08:00am 11.3 7.3 9.0 86 1.1 W 20 28 11 15 1025.6 1025.6 0.0
28/07:30am 10.4 6.8 8.3 87 1.0 WNW 17 22 9 12 1025.3 1025.3 0.0
28/07:00am 10.1 6.5 8.2 88 0.9 WNW 17 24 9 13 1024.9 1024.9 0.0
28/06:30am 10.6 6.7 8.5 87 1.0 W 19 24 10 13 1024.7 1024.7 0.0
28/06:00am 11.0 6.3 9.3 89 0.8 W 24 30 13 16 1024.3 1024.3 0.0
28/05:30am 11.4 6.1 9.7 89 0.9 W 28 35 15 19 1024.0 1024.0 0.0
28/05:00am 10.7 6.3 9.0 89 0.8 W 22 32 12 17 1023.8 1023.8 0.0
28/04:30am 11.3 4.6 9.7 90 0.8 W 35 41 19 22 1023.6 1023.6 0.0
28/04:00am 11.1 6.6 10.0 93 0.6 W 24 32 13 17 1023.5 1023.5 0.0
28/03:30am 11.3 6.8 10.2 93 0.6 W 24 32 13 17 1023.3 1023.3 0.0
28/03:00am 10.6 6.6 9.2 91 0.7 WNW 20 26 11 14 1023.4 1023.4 0.0
28/02:30am 10.4 6.5 8.8 90 0.8 WNW 19 24 10 13 1023.3 1023.3 0.0
28/02:00am 10.5 6.6 8.6 88 0.9 WNW 19 28 10 15 1023.3 1023.3 0.0
28/01:30am 10.6 7.1 8.7 88 0.9 WNW 17 22 9 12 1023.3 1023.3 0.0
28/01:00am 10.5 7.4 8.8 89 0.8 WNW 15 20 8 11 1023.3 1023.3 0.0
28/12:30am 10.5 7.3 8.6 88 0.9 WNW 15 20 8 11 1023.2 1023.2 0.0
28/12:00am 11.3 7.8 8.9 85 1.2 W 17 22 9 12 1023.1 1023.1 0.0
 
Date/Time
EST
Tmp

°C
App
Tmp
°C
Dew
Point
°C
Rel
Hum
%
Delta-T

°C
Wind Press
QNH
hPa
Press
MSL
hPa
Rain
since
9 am
mm
Dir
 
Spd
km/h
Gust
km/h
Spd
kts
Gust
kts
27/11:30pm 11.7 5.9 9.3 85 1.2 W 30 35 16 19 1022.9 1022.9 0.0
27/11:00pm 11.7 5.6 9.9 89 0.9 WSW 32 37 17 20 1022.9 1022.9 0.0
27/10:30pm 11.8 5.8 10.0 89 0.9 WSW 32 35 17 19 1022.9 1022.9 0.0
27/10:00pm 11.7 6.0 9.8 88 1.0 W 30 35 16 19 1022.9 1022.9 0.0
27/09:30pm 11.7 5.5 9.4 86 1.2 W 32 39 17 21 1022.6 1022.6 0.0
27/09:00pm 12.0 6.8 10.4 90 0.8 WSW 28 33 15 18 1022.6 1022.6 0.0
27/08:30pm 12.1 6.5 10.0 87 1.1 WSW 30 35 16 19 1022.3 1022.3 0.0
27/08:00pm 12.1 6.5 10.2 88 1.0 WSW 30 35 16 19 1022.0 1022.0 0.0
27/07:30pm 12.2 7.4 10.4 89 0.9 WSW 26 30 14 16 1021.7 1021.7 0.0
27/07:00pm 12.0 7.4 10.9 93 0.6 SW 26 30 14 16 1021.4 1021.4 0.0
27/06:30pm 11.9 6.8 10.6 92 0.7 SW 28 33 15 18 1021.2 1021.2 0.0
27/06:00pm 11.8 6.3 10.4 91 0.7 SW 30 35 16 19 1020.8 1020.8 0.0
27/05:30pm 11.9 5.8 10.3 90 0.8 SW 33 39 18 21 1020.4 1020.4 0.0
27/05:00pm 11.9 6.1 10.8 93 0.6 SW 32 37 17 20 1020.1 1020.1 0.0
27/04:30pm 12.0 6.1 11.1 94 0.5 SSW 33 39 18 21 1019.9 1019.9 0.0
27/04:00pm 11.9 6.4 11.7 99 0.1 SSW 32 41 17 22 1019.8 1019.8 0.0
27/03:30pm 12.5 5.7 10.7 89 0.9 SSW 37 43 20 23 1019.4 1019.4 0.0
27/03:00pm 12.9 7.7 11.6 92 0.7 SSW 30 33 16 18 1019.0 1019.0 0.0
27/02:30pm 13.2 7.2 10.9 86 1.2 SSW 33 41 18 22 1018.5 1018.5 0.0
27/02:00pm 13.5 8.5 11.0 85 1.3 SSW 28 35 15 19 1018.3 1018.3 0.0
27/01:30pm 13.4 8.0 10.9 85 1.3 SW 30 35 16 19 1018.3 1018.3 0.0
27/01:00pm 12.7 6.8 10.4 86 1.2 SW 32 35 17 19 1018.3 1018.3 0.0
27/12:30pm 13.1 7.6 10.5 84 1.4 SW 30 35 16 19 1018.5 1018.5 0.0
27/12:00pm 12.7 7.1 10.1 84 1.3 SW 30 33 16 18 1018.7 1018.7 0.0
27/11:30am 12.4 6.3 9.8 84 1.3 WSW 32 37 17 20 1018.8 1018.8 0.0
27/11:00am 12.0 5.9 9.9 87 1.1 WSW 32 37 17 20 1018.8 1018.8 0.0
27/10:30am 11.9 4.8 9.6 86 1.2 WSW 37 44 20 24 1018.5 1018.5 0.0
27/10:00am 11.8 5.1 9.7 87 1.1 WSW 35 43 19 23 1018.2 1018.2 0.0
27/09:30am 10.4 5.1 9.9 97 0.3 WSW 28 32 15 17 1017.9 1017.9 0.0
27/09:00am 11.3 5.5 9.6 89 0.9 WSW 30 37 16 20 1017.7 1017.7 0.6
27/08:30am 10.8 5.5 9.9 94 0.5 SW 28 37 15 20 1017.5 1017.5 0.6
27/08:00am 11.1 4.3 9.4 89 0.9 WSW 35 41 19 22 1017.1 1017.1 0.6
27/07:30am 10.7 4.4 9.1 90 0.8 WSW 32 37 17 20 1016.6 1016.6 0.6
27/07:00am 10.7 4.3 9.3 91 0.7 WSW 33 39 18 21 1016.2 1016.2 0.6
27/06:30am 10.6 4.1 8.9 89 0.8 W 33 39 18 21 1016.0 1016.0 0.6
27/06:00am 10.5 4.2 8.9 90 0.8 WSW 32 39 17 21 1015.9 1015.9 0.6
27/05:30am 10.6 4.3 9.0 90 0.8 W 32 39 17 21 1015.5 1015.5 0.6
27/05:00am 10.3 3.7 8.7 90 0.8 W 33 43 18 23 1015.4 1015.4 0.6
27/04:30am 10.3 3.9 8.7 90 0.8 W 32 39 17 21 1015.0 1015.0 0.6
27/04:00am 10.5 4.6 9.1 91 0.7 WSW 30 39 16 21 1014.8 1014.8 0.6
27/03:30am 10.4 3.6 9.3 93 0.5 WSW 35 43 19 23 1014.6 1014.6 0.6
27/03:00am 10.4 3.2 9.0 91 0.7 WSW 37 50 20 27 1014.5 1014.5 0.6
27/02:30am 10.2 3.4 9.3 94 0.4 W 35 44 19 24 1014.5 1014.5 0.6
27/02:00am 10.5 3.3 9.1 91 0.7 WSW 37 46 20 25 1014.5 1014.5 0.6
27/01:30am 10.2 4.9 9.7 97 0.3 WSW 28 33 15 18 1014.5 1014.5 0.6
27/01:00am 9.9 3.6 9.6 98 0.1 SW 33 39 18 21 1014.6 1014.6 0.6
27/12:30am 10.6 3.8 9.4 92 0.6 WSW 35 41 19 22 1014.6 1014.6 0.6
27/12:00am 10.3 3.5 9.1 92 0.6 WSW 35 43 19 23 1014.3 1014.3 0.6
 
Date/Time
EST
Tmp

°C
App
Tmp
°C
Dew
Point
°C
Rel
Hum
%
Delta-T

°C
Wind Press
QNH
hPa
Press
MSL
hPa
Rain
since
9 am
mm
Dir
 
Spd
km/h
Gust
km/h
Spd
kts
Gust
kts
26/11:30pm 10.5 4.3 9.3 92 0.6 WSW 32 37 17 20 1014.3 1014.3 0.6
26/11:00pm 10.6 5.2 9.4 92 0.6 WSW 28 35 15 19 1014.3 1014.3 0.6
26/10:30pm 10.7 4.9 9.5 92 0.6 SW 30 35 16 19 1014.3 1014.3 0.6
26/10:00pm 10.9 4.0 9.0 88 0.9 WSW 35 44 19 24 1014.3 1014.3 0.6
26/09:30pm 10.8 4.0 9.1 89 0.8 WSW 35 41 19 22 1014.2 1014.2 0.6
26/09:00pm 11.0 4.2 9.1 88 0.9 WSW 35 46 19 25 1013.9 1013.9 0.6
26/08:30pm 10.7 5.0 9.9 95 0.4 SW 30 33 16 18 1013.8 1013.8 0.6
26/08:00pm 10.9 4.8 10.4 97 0.3 SW 33 39 18 21 1013.5 1013.5 0.6
26/07:30pm 10.6 4.1 10.3 98 0.2 SW 35 39 19 21 1013.4 1013.4 0.6
26/07:00pm 10.4 5.9 10.2 99 0.1 SW 24 30 13 16 1013.3 1013.3 0.4
26/06:30pm 9.9 3.8 9.8 99 0.1 SW 32 35 17 19 1013.0 1013.0 0.4
26/06:00pm 11.4 6.1 11.2 99 0.1 SW 30 35 16 19 1012.5 1012.5 0.0
26/05:30pm 11.4 5.7 11.2 99 0.1 SSW 32 35 17 19 1012.1 1012.1 0.0
26/05:00pm 12.7 6.2 10.4 86 1.2 SW 35 41 19 22 1011.5 1011.5 0.0
26/04:30pm 13.1 6.5 10.1 82 1.5 WSW 35 39 19 21 1011.2 1011.2 0.0
26/04:00pm 13.3 6.7 9.9 80 1.8 WSW 35 41 19 22 1010.9 1010.9 0.0
26/03:30pm 13.5 7.5 10.1 80 1.8 WSW 32 37 17 20 1010.8 1010.8 0.0
26/03:00pm 13.3 7.5 9.5 78 1.9 WSW 30 35 16 19 1010.8 1010.8 0.0
26/02:30pm 13.9 10.1 9.1 73 2.4 W 19 22 10 12 1010.8 1010.8 0.0
26/02:00pm 12.9 8.9 8.4 74 2.2 W 19 22 10 12 1011.0 1011.0 0.0
26/01:30pm 13.1 9.9 8.4 73 2.3 WSW 15 19 8 10 1011.0 1011.0 0.0
26/01:00pm 13.6 10.0 8.4 71 2.6 WSW 17 22 9 12 1011.1 1011.1 0.0
26/12:30pm 13.2 9.5 8.1 71 2.5 W 17 24 9 13 1011.4 1011.4 0.0
26/12:00pm 12.7 9.5 8.6 76 2.0 W 15 22 8 12 1011.8 1011.8 0.0
26/11:30am 12.8 8.9 8.7 76 2.0 WSW 19 24 10 13 1012.3 1012.3 0.0
26/11:00am 12.2 8.2 8.1 76 2.0 W 19 24 10 13 1012.7 1012.7 0.0
26/10:30am 11.3 7.1 7.6 78 1.8 W 19 26 10 14 1012.8 1012.8 0.0
26/10:00am 10.9 4.4 8.1 83 1.4 WSW 32 37 17 20 1013.0 1013.0 0.0
26/09:30am 10.7 4.7 8.5 86 1.1 WSW 30 35 16 19 1013.1 1013.1 0.0
26/09:00am 10.6 4.1 8.2 85 1.2 WSW 32 39 17 21 1013.2 1013.2 0.4
26/08:30am 10.6 4.5 8.2 85 1.2 W 30 41 16 22 1013.2 1013.2 0.4
26/08:00am 10.7 5.4 8.3 85 1.2 WSW 26 30 14 16 1013.2 1013.2 0.4
26/07:30am 9.9 4.1 7.8 87 1.0 WSW 28 33 15 18 1013.0 1013.0 0.4
26/07:00am 10.0 4.0 8.6 91 0.7 WSW 30 37 16 20 1012.6 1012.6 0.4
26/06:30am 9.9 3.4 8.8 93 0.5 WSW 33 39 18 21 1012.4 1012.4 0.4
26/06:00am 9.6 3.9 8.5 93 0.5 WSW 28 32 15 17 1012.3 1012.3 0.4
26/05:30am 9.8 5.1 9.2 96 0.3 WSW 24 28 13 15 1012.3 1012.3 0.4
26/05:00am 9.7 5.6 8.6 93 0.5 WSW 20 24 11 13 1012.4 1012.4 0.4
26/04:30am 9.9 5.9 9.1 95 0.4 WSW 20 28 11 15 1012.4 1012.4 0.4
26/04:00am 10.0 5.4 9.7 98 0.2 WSW 24 28 13 15 1012.5 1012.5 0.4
26/03:30am 9.6 6.3 9.5 99 0.0 SW 17 20 9 11 1012.5 1012.5 0.4
26/03:00am 9.8 6.0 9.7 99 0.1 SW 20 24 11 13 1012.7 1012.7 0.2
26/02:30am 10.1 6.0 10.0 99 0.1 SW 22 28 12 15 1012.7 1012.7 0.2
26/02:00am 10.1 6.4 10.0 99 0.1 WSW 20 24 11 13 1012.9 1012.9 0.2
26/01:30am 9.1 7.2 9.1 100 0.0 WSW 9 9 5 5 1013.1 1013.1 0.2
26/01:00am 9.0 7.5 9.0 100 0.0 WSW 7 9 4 5 1013.0 1013.0 0.2
26/12:30am 8.8 7.4 8.8 100 0.0 WSW 6 6 3 3 1013.0 1013.0 0.2
26/12:00am 9.3 5.9 9.2 99 0.0 WSW 17 20 9 11 1013.1 1013.1 0.0
 
Date/Time
EST
Tmp

°C
App
Tmp
°C
Dew
Point
°C
Rel
Hum
%
Delta-T

°C
Wind Press
QNH
hPa
Press
MSL
hPa
Rain
since
9 am
mm
Dir
 
Spd
km/h
Gust
km/h
Spd
kts
Gust
kts
25/11:30pm 9.8 6.2 9.7 99 0.1 WSW 19 22 10 12 1013.1 1013.1 0.0
25/11:00pm 9.9 7.0 9.8 99 0.1 SW 15 17 8 9 1013.1 1013.1 0.0
25/10:30pm 9.6 7.1 9.6 100 0.0 WSW 13 15 7 8 1013.4 1013.4 0.0
25/10:00pm 10.3 8.2 9.7 96 0.3 SW 11 15 6 8 1013.4 1013.4 0.0
25/09:30pm 10.8 9.1 9.7 93 0.6 SW 9 11 5 6 1013.4 1013.4 0.0
25/09:00pm 11.2 9.1 9.8 91 0.7 SW 11 15 6 8 1013.3 1013.3 0.0
25/08:30pm 11.0 8.0 9.4 90 0.8 SSW 15 20 8 11 1013.3 1013.3 0.0
25/08:00pm 11.1 7.8 9.5 90 0.8 SSW 17 24 9 13 1013.2 1013.2 0.0
25/07:30pm 11.1 8.2 9.5 90 0.8 SSW 15 20 8 11 1013.0 1013.0 0.0
25/07:00pm 11.1 7.9 9.9 92 0.6 SSW 17 20 9 11 1012.9 1012.9 0.0
25/06:30pm 11.3 7.5 9.9 91 0.7 S 20 24 11 13 1012.6 1012.6 0.0
25/06:00pm 11.4 7.6 9.7 89 0.9 S 20 26 11 14 1012.3 1012.3 0.0
25/05:30pm 11.7 8.1 10.4 92 0.7 S 20 24 11 13 1011.8 1011.8 0.0
25/05:00pm 11.8 7.6 9.9 88 1.0 S 22 28 12 15 1011.6 1011.6 0.0
25/04:30pm 11.9 7.4 10.0 88 1.0 SSW 24 30 13 16 1011.3 1011.3 0.0
25/04:00pm 12.0 7.8 9.9 87 1.1 SSW 22 28 12 15 1011.1 1011.1 0.0
25/03:30pm 12.3 8.3 10.4 88 1.0 SSW 22 32 12 17 1011.0 1011.0 0.0

Latest Capital City Observations: Canberra | Sydney | Melbourne | Brisbane | Adelaide | Perth | Hobart | Darwin

Other Formats:

Comma delimited format used in spreadsheet applications
http://www.bom.gov.au/fwo/IDT60901/IDT60901.94951.axf

JavaScript Object Notation format (JSON) in row-major order
http://www.bom.gov.au/fwo/IDT60901/IDT60901.94951.json